Time;durP1;ratioP1;P1;durP2;ratioP2;P2;SDS_P1;SDS_P2;PMS_P1;PMS_P2;Temp;Humidity;BMP_temperature;BMP_pressure;BME280_temperature;BME280_humidity;BME280_pressure;Samples;Min_cycle;Max_cycle;Signal;HPM_P1;HPM_P2
2022/12/23 00:02:11;;;;;;;15.80;6.97;;;;;;;;;;12840856;19;20291;-67
2022/12/23 00:06:28;;;;;;;14.35;6.95;;;;;;;;;;12841094;19;20417;-67
2022/12/23 00:10:48;;;;;;;10.27;5.72;;;;;;;;;;12839777;19;20010;-68
2022/12/23 00:15:06;;;;;;;11.50;6.90;;;;;;;;;;12838651;19;20433;-67
2022/12/23 00:19:23;;;;;;;12.30;6.15;;;;;;;;;;12839723;19;20010;-67
2022/12/23 00:23:43;;;;;;;12.10;6.50;;;;;;;;;;12840058;19;20460;-68
2022/12/23 00:28:00;;;;;;;10.38;5.65;;;;;;;;;;12837938;19;20007;-68
2022/12/23 00:32:17;;;;;;;10.88;6.20;;;;;;;;;;12838450;19;20438;-70
2022/12/23 00:36:37;;;;;;;11.55;5.85;;;;;;;;;;12839122;19;20372;-67
2022/12/23 00:45:29;;;;;;;8.77;5.20;;;;;;;;;;12836204;19;20339;-67
2022/12/23 00:49:46;;;;;;;12.48;6.35;;;;;;;;;;12838306;19;20343;-68
2022/12/23 00:54:04;;;;;;;9.52;5.20;;;;;;;;;;12837242;19;20338;-67
2022/12/23 00:58:21;;;;;;;8.25;4.88;;;;;;;;;;12835558;19;20449;-68
2022/12/23 01:07:14;;;;;;;9.65;4.68;;;;;;;;;;12836349;19;20433;-68
2022/12/23 01:11:31;;;;;;;7.55;4.78;;;;;;;;;;12835341;19;20037;-68
2022/12/23 01:15:48;;;;;;;8.38;4.20;;;;;;;;;;12836598;19;20430;-68
2022/12/23 01:20:06;;;;;;;11.18;6.22;;;;;;;;;;12834239;19;20367;-68
2022/12/23 01:24:28;;;;;;;11.13;6.65;;;;;;;;;;12837110;19;20029;-67
2022/12/23 01:28:45;;;;;;;9.60;5.80;;;;;;;;;;12837669;19;20007;-68
2022/12/23 01:33:02;;;;;;;12.43;7.05;;;;;;;;;;12836309;19;20446;-67
2022/12/23 01:37:19;;;;;;;11.20;7.38;;;;;;;;;;12835885;19;20338;-69
2022/12/23 01:46:12;;;;;;;13.23;5.65;;;;;;;;;;12837558;19;20322;-67
2022/12/23 01:50:44;;;;;;;10.80;5.90;;;;;;;;;;12834769;19;20461;-67
2022/12/23 01:55:01;;;;;;;12.82;6.65;;;;;;;;;;12836665;19;20303;-68
2022/12/23 02:03:58;;;;;;;10.20;6.30;;;;;;;;;;12834718;19;20318;-67
2022/12/23 02:13:05;;;;;;;11.75;6.38;;;;;;;;;;12846216;19;20699;-67
2022/12/23 02:18:00;;;;;;;11.13;6.10;;;;;;;;;;12844508;19;20459;-70
2022/12/23 02:22:47;;;;;;;14.15;7.68;;;;;;;;;;12840943;19;20469;-68
2022/12/23 02:27:21;;;;;;;10.85;5.85;;;;;;;;;;12846453;19;20292;-67
2022/12/23 02:31:57;;;;;;;10.57;6.43;;;;;;;;;;12844922;19;20422;-67
2022/12/23 02:36:53;;;;;;;10.65;6.22;;;;;;;;;;12844095;19;20318;-67
2022/12/23 02:41:38;;;;;;;12.93;6.55;;;;;;;;;;12845153;19;20429;-67
2022/12/23 02:46:05;;;;;;;12.68;6.60;;;;;;;;;;12844708;19;20021;-67
2022/12/23 02:50:32;;;;;;;13.60;7.65;;;;;;;;;;12845517;19;20006;-67
2022/12/23 02:54:59;;;;;;;12.13;7.15;;;;;;;;;;12845088;19;20465;-67
2022/12/23 02:59:23;;;;;;;11.10;6.80;;;;;;;;;;12842758;19;20438;-67
2022/12/23 03:03:40;;;;;;;9.43;5.90;;;;;;;;;;12843630;19;20038;-67
2022/12/23 03:08:02;;;;;;;10.40;7.03;;;;;;;;;;12843251;19;20322;-66
2022/12/23 03:13:11;;;;;;;10.50;6.43;;;;;;;;;;12841962;19;20456;-68
2022/12/23 03:17:40;;;;;;;11.23;5.80;;;;;;;;;;12839671;19;20417;-67
2022/12/23 03:22:25;;;;;;;9.80;6.45;;;;;;;;;;12842706;19;20330;-67
2022/12/23 03:26:59;;;;;;;12.75;6.53;;;;;;;;;;12842666;19;20026;-67
2022/12/23 03:31:23;;;;;;;8.82;5.47;;;;;;;;;;12840772;19;20292;-67
2022/12/23 03:35:50;;;;;;;8.80;4.85;;;;;;;;;;12840245;19;20429;-68
2022/12/23 03:40:30;;;;;;;7.32;4.50;;;;;;;;;;12839639;19;20485;-68
2022/12/23 03:44:49;;;;;;;8.48;5.68;;;;;;;;;;12842894;19;20457;-66
2022/12/23 03:49:32;;;;;;;11.52;5.60;;;;;;;;;;12837885;19;20387;-66
2022/12/23 03:53:57;;;;;;;6.80;4.75;;;;;;;;;;12840547;19;20426;-68
2022/12/23 03:58:32;;;;;;;6.75;4.20;;;;;;;;;;12840713;19;20446;-67
2022/12/23 04:02:52;;;;;;;6.55;4.50;;;;;;;;;;12840724;19;20021;-66
2022/12/23 04:07:32;;;;;;;8.00;4.63;;;;;;;;;;12839642;19;20018;-66
2022/12/23 04:11:51;;;;;;;8.10;4.40;;;;;;;;;;12838906;19;20318;-66
2022/12/23 04:16:09;;;;;;;7.68;3.60;;;;;;;;;;12838526;19;20436;-67
2022/12/23 04:20:26;;;;;;;6.30;4.07;;;;;;;;;;12839221;19;20432;-67
2022/12/23 04:24:43;;;;;;;4.03;3.13;;;;;;;;;;12839559;19;20448;-66
2022/12/23 04:29:00;;;;;;;5.53;3.73;;;;;;;;;;12840790;19;20014;-69
2022/12/23 04:33:20;;;;;;;6.93;4.35;;;;;;;;;;12835539;19;20376;-67
2022/12/23 04:37:37;;;;;;;6.38;4.80;;;;;;;;;;12836980;19;20295;-68
2022/12/23 04:41:54;;;;;;;18.88;10.90;;;;;;;;;;12837826;19;20302;-68
2022/12/23 04:46:11;;;;;;;11.18;6.53;;;;;;;;;;12837349;19;20355;-68
2022/12/23 04:50:28;;;;;;;8.07;5.65;;;;;;;;;;12837346;19;20355;-68
2022/12/23 04:54:45;;;;;;;11.40;6.65;;;;;;;;;;12838473;19;20041;-68
2022/12/23 04:59:03;;;;;;;8.20;5.57;;;;;;;;;;12837686;19;20466;-67
2022/12/23 05:03:20;;;;;;;8.98;4.60;;;;;;;;;;12835560;19;20371;-68
2022/12/23 05:07:37;;;;;;;9.45;5.65;;;;;;;;;;12836131;19;20311;-67
2022/12/23 05:11:54;;;;;;;9.93;6.00;;;;;;;;;;12837957;19;20023;-66
2022/12/23 05:16:11;;;;;;;9.23;5.72;;;;;;;;;;12836116;19;20426;-66
2022/12/23 05:20:28;;;;;;;9.00;5.80;;;;;;;;;;12836834;19;20283;-68
2022/12/23 05:24:46;;;;;;;8.77;4.97;;;;;;;;;;12834736;19;20322;-66
2022/12/23 05:29:04;;;;;;;9.57;5.97;;;;;;;;;;12835526;19;20010;-67
2022/12/23 05:33:21;;;;;;;9.52;5.82;;;;;;;;;;12835248;19;20030;-67
2022/12/23 05:37:38;;;;;;;5.88;4.28;;;;;;;;;;12836800;19;20425;-69
2022/12/23 05:41:55;;;;;;;8.05;5.47;;;;;;;;;;12836591;19;20433;-66
2022/12/23 05:46:12;;;;;;;11.27;7.07;;;;;;;;;;12846170;19;20011;-67
2022/12/23 05:50:29;;;;;;;10.50;7.50;;;;;;;;;;12847697;19;20434;-67
2022/12/23 05:54:46;;;;;;;14.35;8.10;;;;;;;;;;12847800;19;20417;-66
2022/12/23 05:59:03;;;;;;;13.23;8.07;;;;;;;;;;12847294;19;20024;-69
2022/12/23 06:03:20;;;;;;;13.25;8.55;;;;;;;;;;12847290;19;20359;-68
2022/12/23 06:07:39;;;;;;;17.65;9.57;;;;;;;;;;12846974;19;20027;-66
2022/12/23 06:11:57;;;;;;;17.25;8.63;;;;;;;;;;12845144;19;20445;-67
2022/12/23 06:16:14;;;;;;;15.35;8.52;;;;;;;;;;12846486;19;20051;-67
2022/12/23 06:20:31;;;;;;;17.13;10.30;;;;;;;;;;12845778;19;20015;-67
2022/12/23 06:24:49;;;;;;;14.27;8.55;;;;;;;;;;12845490;19;20006;-68
2022/12/23 06:29:06;;;;;;;14.75;9.25;;;;;;;;;;12843086;19;20006;-68
2022/12/23 06:33:24;;;;;;;14.68;8.45;;;;;;;;;;12845715;19;20409;-67
2022/12/23 06:37:41;;;;;;;11.15;6.97;;;;;;;;;;12843635;19;20295;-66
2022/12/23 06:41:58;;;;;;;12.35;7.72;;;;;;;;;;12846028;19;20299;-67
2022/12/23 06:46:15;;;;;;;14.50;9.27;;;;;;;;;;12843676;19;20018;-68
2022/12/23 06:50:32;;;;;;;12.85;8.38;;;;;;;;;;12843380;19;20425;-68
2022/12/23 06:54:49;;;;;;;12.90;7.93;;;;;;;;;;12843832;19;20418;-67
2022/12/23 06:59:06;;;;;;;13.48;8.30;;;;;;;;;;12841439;19;20361;-68
2022/12/23 07:03:23;;;;;;;11.67;7.17;;;;;;;;;;12844343;19;20437;-67
2022/12/23 07:07:40;;;;;;;10.25;6.72;;;;;;;;;;12843528;19;20449;-68
2022/12/23 07:11:57;;;;;;;12.95;7.97;;;;;;;;;;12843124;19;20366;-67
2022/12/23 07:16:14;;;;;;;13.70;8.43;;;;;;;;;;12841731;19;20434;-67
2022/12/23 07:20:32;;;;;;;14.23;9.57;;;;;;;;;;12842279;19;20444;-67
2022/12/23 07:24:49;;;;;;;16.02;8.90;;;;;;;;;;12842794;19;20302;-66
2022/12/23 07:29:06;;;;;;;13.87;9.17;;;;;;;;;;12842969;19;20015;-67
2022/12/23 07:33:23;;;;;;;17.13;8.90;;;;;;;;;;12843163;19;20421;-67
2022/12/23 07:37:40;;;;;;;14.75;8.75;;;;;;;;;;12842437;19;20307;-68
2022/12/23 07:41:57;;;;;;;15.50;7.43;;;;;;;;;;12842001;19;20327;-66
2022/12/23 07:46:34;;;;;;;12.82;7.88;;;;;;;;;;12840063;19;20425;-67
2022/12/23 07:50:52;;;;;;;15.10;7.60;;;;;;;;;;12839770;19;20540;-66
2022/12/23 07:55:09;;;;;;;12.55;7.35;;;;;;;;;;12839747;19;20737;-68
2022/12/23 07:59:26;;;;;;;13.27;8.10;;;;;;;;;;12838644;19;20294;-67
2022/12/23 08:03:43;;;;;;;12.85;8.88;;;;;;;;;;12839673;19;20362;-66
2022/12/23 08:08:00;;;;;;;12.43;8.73;;;;;;;;;;12837224;19;20513;-67
2022/12/23 08:12:18;;;;;;;;;;;;;;;;;;12840236;19;20433;-66
2022/12/23 08:16:35;;;;;;;13.60;9.77;;;;;;;;;;12840499;19;20295;-67
2022/12/23 08:21:06;;;;;;;17.48;10.57;;;;;;;;;;12838535;19;20440;-66
2022/12/23 08:25:23;;;;;;;14.57;9.98;;;;;;;;;;12837497;19;20065;-67
2022/12/23 08:29:41;;;;;;;19.45;13.45;;;;;;;;;;12839301;19;20010;-66
2022/12/23 08:34:00;;;;;;;23.33;15.07;;;;;;;;;;12840647;19;20425;-67
2022/12/23 08:38:17;;;;;;;23.73;16.48;;;;;;;;;;12839604;19;20422;-66
2022/12/23 08:42:34;;;;;;;27.58;17.60;;;;;;;;;;12839154;19;20434;-66
2022/12/23 08:46:52;;;;;;;28.60;19.75;;;;;;;;;;12839629;19;20014;-66
2022/12/23 08:51:13;;;;;;;28.00;18.85;;;;;;;;;;12838382;19;20031;-65
2022/12/23 08:55:40;;;;;;;21.70;14.45;;;;;;;;;;12835769;19;20300;-66
2022/12/23 08:59:57;;;;;;;19.85;12.82;;;;;;;;;;12836216;19;20457;-66
2022/12/23 09:04:14;;;;;;;15.77;10.35;;;;;;;;;;12837459;19;20425;-67
2022/12/23 09:08:32;;;;;;;43.92;24.20;;;;;;;;;;12836141;19;20466;-65
2022/12/23 09:12:49;;;;;;;69.32;29.25;;;;;;;;;;12837862;19;20426;-66
2022/12/23 09:17:07;;;;;;;99.07;36.23;;;;;;;;;;12843162;19;20002;-67
2022/12/23 09:21:24;;;;;;;92.13;36.90;;;;;;;;;;12861339;19;20718;-68
2022/12/23 09:25:41;;;;;;;65.87;28.37;;;;;;;;;;12862286;19;20324;-67
2022/12/23 09:29:58;;;;;;;64.25;27.45;;;;;;;;;;12862327;19;20010;-67
2022/12/23 09:34:15;;;;;;;77.20;31.80;;;;;;;;;;12861016;19;20368;-66
2022/12/23 09:38:33;;;;;;;69.97;31.35;;;;;;;;;;12860464;19;20038;-67
2022/12/23 09:43:15;;;;;;;168.50;70.28;;;;;;;;;;12860264;19;20036;-66
2022/12/23 09:47:33;;;;;;;46.03;26.20;;;;;;;;;;12859123;19;20452;-66
2022/12/23 09:51:54;;;;;;;;;;;;;;;;;;12861506;19;20283;-65
2022/12/23 09:56:42;;;;;;;22.40;14.00;;;;;;;;;;12857666;19;20256;-65
2022/12/23 10:01:06;;;;;;;;;;;;;;;;;;12860226;19;20010;-65
2022/12/23 10:05:55;;;;;;;25.98;17.02;;;;;;;;;;12858101;19;20291;-65
2022/12/23 10:10:19;;;;;;;14.35;9.63;;;;;;;;;;12857096;19;20087;-67
2022/12/23 10:14:36;;;;;;;17.30;9.77;;;;;;;;;;12857400;19;20306;-65
2022/12/23 10:19:40;;;;;;;14.95;9.02;;;;;;;;;;12860273;19;20300;-66
2022/12/23 10:24:05;;;;;;;15.63;8.27;;;;;;;;;;12856640;19;20433;-66
2022/12/23 10:28:22;;;;;;;12.98;7.95;;;;;;;;;;12853346;19;20030;-66
2022/12/23 10:33:13;;;;;;;17.55;9.18;;;;;;;;;;12844826;19;20026;-65
2022/12/23 10:37:48;;;;;;;14.13;7.80;;;;;;;;;;12842898;19;20418;-66
2022/12/23 10:42:39;;;;;;;28.25;15.20;;;;;;;;;;12842846;19;20018;-66
2022/12/23 10:47:33;;;;;;;46.45;19.60;;;;;;;;;;12845502;19;20006;-66
2022/12/23 10:52:24;;;;;;;36.50;15.95;;;;;;;;;;12845530;19;20271;-66
2022/12/23 10:56:43;;;;;;;28.52;15.77;;;;;;;;;;12844999;19;20341;-66
2022/12/23 11:01:06;;;;;;;27.67;15.95;;;;;;;;;;12842866;19;20310;-67
2022/12/23 11:05:35;;;;;;;16.25;10.73;;;;;;;;;;12841584;19;20466;-68
2022/12/23 11:10:12;;;;;;;19.92;9.68;;;;;;;;;;12842452;19;20314;-66
2022/12/23 11:14:39;;;;;;;14.15;8.13;;;;;;;;;;12839720;19;20023;-66
2022/12/23 11:19:14;;;;;;;16.30;8.88;;;;;;;;;;12843763;19;20521;-66
2022/12/23 11:23:34;;;;;;;18.67;9.45;;;;;;;;;;12335761;19;10001200;-66
2022/12/23 11:28:04;;;;;;;19.83;10.20;;;;;;;;;;12843199;19;20038;-66
2022/12/23 11:32:26;;;;;;;27.27;11.98;;;;;;;;;;12840385;19;20069;-66
2022/12/23 11:36:43;;;;;;;23.38;11.93;;;;;;;;;;12840337;19;20385;-67
2022/12/23 11:41:07;;;;;;;32.22;15.00;;;;;;;;;;12836973;19;20369;-68
2022/12/23 11:45:29;;;;;;;28.57;10.93;;;;;;;;;;12841537;19;20309;-67
2022/12/23 11:49:58;;;;;;;23.75;11.63;;;;;;;;;;12842087;19;20006;-66
2022/12/23 11:54:19;;;;;;;15.70;8.43;;;;;;;;;;12840902;19;20291;-69
2022/12/23 11:58:52;;;;;;;20.50;11.07;;;;;;;;;;12841059;19;20366;-67
2022/12/23 12:03:19;;;;;;;20.00;9.82;;;;;;;;;;12837703;19;20041;-67
2022/12/23 12:07:42;;;;;;;16.92;9.32;;;;;;;;;;12840519;19;20363;-67
2022/12/23 12:12:14;;;;;;;19.88;10.27;;;;;;;;;;12838703;19;20014;-67
2022/12/23 12:17:34;;;;;;;16.83;9.80;;;;;;;;;;12836317;19;20449;-69
2022/12/23 12:21:57;;;;;;;12.73;7.57;;;;;;;;;;12837434;19;20082;-67
2022/12/23 12:26:28;;;;;;;14.98;8.68;;;;;;;;;;12839098;19;20366;-67
2022/12/23 12:31:12;;;;;;;17.98;11.27;;;;;;;;;;12839831;19;20058;-67
2022/12/23 12:35:51;;;;;;;24.38;13.45;;;;;;;;;;12835176;19;20437;-67
2022/12/23 12:40:20;;;;;;;10.10;7.15;;;;;;;;;;12836461;19;20310;-70
2022/12/23 12:45:02;;;;;;;9.18;6.47;;;;;;;;;;12837173;19;20490;-68
2022/12/23 12:49:44;;;;;;;12.18;6.20;;;;;;;;;;12836540;19;20448;-67
2022/12/23 12:54:30;;;;;;;12.95;7.07;;;;;;;;;;12836971;19;20350;-67
2022/12/23 12:58:48;;;;;;;13.05;7.03;;;;;;;;;;12835824;19;20443;-67
2022/12/23 13:03:19;;;;;;;10.48;6.18;;;;;;;;;;12836548;19;20482;-67
2022/12/23 13:07:57;;;;;;;10.75;5.22;;;;;;;;;;12837142;19;20311;-67
2022/12/23 13:12:28;;;;;;;17.50;8.98;;;;;;;;;;12839352;19;20429;-68
2022/12/23 13:17:02;;;;;;;20.70;9.52;;;;;;;;;;12836268;19;20441;-66
2022/12/23 13:21:43;;;;;;;14.50;7.53;;;;;;;;;;12833842;19;20774;-67
2022/12/23 13:26:12;;;;;;;11.93;6.63;;;;;;;;;;12836552;19;20017;-67
2022/12/23 13:30:42;;;;;;;11.38;5.78;;;;;;;;;;12833821;19;20314;-67
2022/12/23 13:35:34;;;;;;;14.30;8.38;;;;;;;;;;12834101;19;20315;-66
2022/12/23 13:40:16;;;;;;;12.80;6.55;;;;;;;;;;12834985;19;20017;-68
2022/12/23 13:44:34;;;;;;;17.98;11.13;;;;;;;;;;12711206;19;20320;-67
2022/12/23 13:49:20;;;;;;;13.68;8.15;;;;;;;;;;12835425;19;20676;-66
2022/12/23 13:54:03;;;;;;;15.38;7.78;;;;;;;;;;12834817;19;20710;-66
2022/12/23 13:58:25;;;;;;;14.93;7.65;;;;;;;;;;12832158;19;20449;-66
2022/12/23 14:03:11;;;;;;;16.25;9.57;;;;;;;;;;12834385;19;20006;-67
2022/12/23 14:07:32;;;;;;;13.27;7.32;;;;;;;;;;12845919;19;20018;-69
2022/12/23 14:11:50;;;;;;;24.85;14.43;;;;;;;;;;12821870;19;20434;-67
2022/12/23 14:16:46;;;;;;;21.83;12.38;;;;;;;;;;12843810;19;20456;-66
2022/12/23 14:21:28;;;;;;;38.15;18.27;;;;;;;;;;12844784;19;20430;-67
2022/12/23 14:25:56;;;;;;;25.20;12.55;;;;;;;;;;12845709;19;20433;-65
2022/12/23 14:30:20;;;;;;;;;;;;;;;;;;12843488;19;20391;-67
2022/12/23 14:35:45;;;;;;;40.15;17.92;;;;;;;;;;12842963;19;20242;-67
2022/12/23 14:40:36;;;;;;;28.67;14.30;;;;;;;;;;12844723;19;20421;-67
2022/12/23 14:44:53;;;;;;;44.85;19.20;;;;;;;;;;12844410;19;20018;-66
2022/12/23 14:49:21;;;;;;;27.58;13.80;;;;;;;;;;12846710;19;20465;-65
2022/12/23 14:53:59;;;;;;;20.02;12.15;;;;;;;;;;12845106;19;20383;-66
2022/12/23 14:58:16;;;;;;;18.70;11.27;;;;;;;;;;12842736;19;20472;-66
2022/12/23 15:02:37;;;;;;;26.67;13.30;;;;;;;;;;12844300;19;20469;-65
2022/12/23 15:07:07;;;;;;;42.15;21.60;;;;;;;;;;12842710;19;20473;-66
2022/12/23 15:11:31;;;;;;;26.40;15.75;;;;;;;;;;12843236;19;20351;-66
2022/12/23 15:15:54;;;;;;;48.90;25.10;;;;;;;;;;12842204;19;20434;-66
2022/12/23 15:20:22;;;;;;;56.10;26.70;;;;;;;;;;12841461;19;20330;-67
2022/12/23 15:24:43;;;;;;;33.50;18.90;;;;;;;;;;12840582;19;20303;-67
2022/12/23 15:29:00;;;;;;;28.02;15.70;;;;;;;;;;12843485;19;20434;-65
2022/12/23 15:33:22;;;;;;;45.60;25.15;;;;;;;;;;12842174;19;20472;-66
2022/12/23 15:38:01;;;;;;;28.30;13.77;;;;;;;;;;12842090;19;20428;-65
2022/12/23 15:42:34;;;;;;;23.88;14.18;;;;;;;;;;12841416;19;20329;-65
2022/12/23 15:46:51;;;;;;;43.95;24.88;;;;;;;;;;12842124;19;20323;-66
2022/12/23 15:51:36;;;;;;;34.15;18.85;;;;;;;;;;12838498;19;20306;-66
2022/12/23 15:56:24;;;;;;;34.42;21.35;;;;;;;;;;12838808;19;20432;-66
2022/12/23 16:00:56;;;;;;;26.42;16.13;;;;;;;;;;12841208;19;20430;-65
2022/12/23 16:05:25;;;;;;;68.28;27.10;;;;;;;;;;12838975;19;20019;-66
2022/12/23 16:09:42;;;;;;;43.25;22.73;;;;;;;;;;12839949;19;20445;-66
2022/12/23 16:14:20;;;;;;;46.83;22.10;;;;;;;;;;12841510;19;21496;-66
2022/12/23 16:18:41;;;;;;;19.73;10.57;;;;;;;;;;12840454;19;20014;-65
2022/12/23 16:23:03;;;;;;;19.83;9.00;;;;;;;;;;12839008;19;20481;-65
2022/12/23 16:27:44;;;;;;;14.32;7.90;;;;;;;;;;12836564;19;20456;-67
2022/12/23 16:32:01;;;;;;;26.27;13.57;;;;;;;;;;12839293;19;20315;-66
2022/12/23 16:36:34;;;;;;;24.40;14.75;;;;;;;;;;12799519;19;20422;-65
2022/12/23 16:40:54;;;;;;;20.58;12.73;;;;;;;;;;12838882;19;20014;-66
2022/12/23 16:45:12;;;;;;;38.53;22.10;;;;;;;;;;12837904;19;20429;-66
2022/12/23 16:49:30;;;;;;;41.08;19.45;;;;;;;;;;12839120;19;20085;-65
2022/12/23 16:53:56;;;;;;;22.90;11.68;;;;;;;;;;12836646;19;20370;-66
2022/12/23 16:58:13;;;;;;;12.10;6.78;;;;;;;;;;12837147;19;20334;-65
2022/12/23 17:02:33;;;;;;;14.07;7.03;;;;;;;;;;12836518;19;20013;-66
2022/12/23 17:06:50;;;;;;;14.05;7.68;;;;;;;;;;12836875;19;20741;-65
2022/12/23 17:11:39;;;;;;;13.00;7.95;;;;;;;;;;12837123;19;20015;-66
2022/12/23 17:15:56;;;;;;;;;;;;;;;;;;12837995;19;20430;-66
2022/12/23 17:20:13;;;;;;;23.38;12.15;;;;;;;;;;12833745;19;19918;-66
2022/12/23 17:24:30;;;;;;;44.13;21.67;;;;;;;;;;12834789;19;20444;-66
2022/12/23 17:28:48;;;;;;;44.53;22.30;;;;;;;;;;12835949;19;20453;-65
2022/12/23 17:33:09;;;;;;;39.60;20.45;;;;;;;;;;12837942;19;20628;-66
2022/12/23 17:37:27;;;;;;;29.50;15.80;;;;;;;;;;12834927;19;20410;-66
2022/12/23 17:41:44;;;;;;;21.33;12.18;;;;;;;;;;12848890;19;20643;-66
2022/12/23 17:46:01;;;;;;;35.50;18.17;;;;;;;;;;12849166;19;20331;-66
2022/12/23 17:50:18;;;;;;;38.92;22.30;;;;;;;;;;12845597;19;20434;-66
2022/12/23 17:54:35;;;;;;;38.45;21.65;;;;;;;;;;12847083;19;20302;-65
2022/12/23 17:58:52;;;;;;;47.05;27.30;;;;;;;;;;12847766;19;20465;-67
2022/12/23 18:03:22;;;;;;;66.10;27.77;;;;;;;;;;12845014;19;20562;-67
2022/12/23 18:07:39;;;;;;;46.13;17.30;;;;;;;;;;12846978;19;20321;-66
2022/12/23 18:11:56;;;;;;;28.83;16.25;;;;;;;;;;12846804;19;20437;-66
2022/12/23 18:16:13;;;;;;;24.95;12.82;;;;;;;;;;12845316;19;20015;-66
2022/12/23 18:20:30;;;;;;;23.83;13.57;;;;;;;;;;12846427;19;20457;-66
2022/12/23 18:24:49;;;;;;;45.08;18.77;;;;;;;;;;12845987;19;20435;-66
2022/12/23 18:29:14;;;;;;;51.53;23.08;;;;;;;;;;12845197;19;20429;-68
2022/12/23 18:33:31;;;;;;;42.00;17.33;;;;;;;;;;12846367;19;20315;-66
2022/12/23 18:37:48;;;;;;;20.63;12.57;;;;;;;;;;12845621;19;20437;-65
2022/12/23 18:42:05;;;;;;;25.13;14.63;;;;;;;;;;12845369;19;20432;-66
2022/12/23 18:46:22;;;;;;;20.35;13.27;;;;;;;;;;12843982;19;20426;-66
2022/12/23 18:50:41;;;;;;;17.27;10.98;;;;;;;;;;12843494;19;20788;-67
2022/12/23 18:54:58;;;;;;;13.38;8.63;;;;;;;;;;12845312;19;20457;-67
2022/12/23 18:59:18;;;;;;;20.70;9.88;;;;;;;;;;12842633;19;20426;-67
2022/12/23 19:03:45;;;;;;;28.10;13.05;;;;;;;;;;12844909;19;20552;-67
2022/12/23 19:08:02;;;;;;;23.60;11.80;;;;;;;;;;12843018;19;20477;-66
2022/12/23 19:12:19;;;;;;;15.57;7.93;;;;;;;;;;12844731;19;20021;-66
2022/12/23 19:16:36;;;;;;;16.92;7.78;;;;;;;;;;12843141;19;20026;-66
2022/12/23 19:20:53;;;;;;;14.07;7.53;;;;;;;;;;12842275;19;20441;-67
2022/12/23 19:25:15;;;;;;;15.82;9.85;;;;;;;;;;12842558;19;20014;-66
2022/12/23 19:29:32;;;;;;;22.58;11.63;;;;;;;;;;12842593;19;20418;-67
2022/12/23 19:33:49;;;;;;;18.13;10.05;;;;;;;;;;12843442;19;20456;-66
2022/12/23 19:38:06;;;;;;;14.10;7.77;;;;;;;;;;12841205;19;20497;-66
2022/12/23 19:42:23;;;;;;;15.45;9.52;;;;;;;;;;12842437;19;20322;-67
2022/12/23 19:46:40;;;;;;;13.77;6.85;;;;;;;;;;12843397;19;20418;-67
2022/12/23 19:51:19;;;;;;;10.73;6.83;;;;;;;;;;12841714;19;20494;-66
2022/12/23 19:55:36;;;;;;;27.10;11.43;;;;;;;;;;12840733;19;20464;-68
2022/12/23 19:59:53;;;;;;;38.28;16.80;;;;;;;;;;12841408;19;20330;-66
2022/12/23 20:04:11;;;;;;;29.60;13.77;;;;;;;;;;12837689;19;20310;-67
2022/12/23 20:08:28;;;;;;;15.17;8.50;;;;;;;;;;12839640;19;20418;-67
2022/12/23 20:12:45;;;;;;;11.88;7.05;;;;;;;;;;12839172;19;20445;-67
2022/12/23 20:17:02;;;;;;;16.13;7.90;;;;;;;;;;12839019;19;20482;-66
2022/12/23 20:21:20;;;;;;;16.60;7.97;;;;;;;;;;12837144;19;20339;-66
2022/12/23 20:25:37;;;;;;;14.75;7.68;;;;;;;;;;12839808;19;20422;-67
2022/12/23 20:29:54;;;;;;;20.88;10.77;;;;;;;;;;12840495;19;20022;-66
2022/12/23 20:34:15;;;;;;;20.33;10.40;;;;;;;;;;12836554;19;20010;-66
2022/12/23 20:38:38;;;;;;;20.33;11.98;;;;;;;;;;12838896;19;20789;-67
2022/12/23 20:42:57;;;;;;;16.80;8.75;;;;;;;;;;12840059;19;20380;-66
2022/12/23 20:47:14;;;;;;;17.95;9.57;;;;;;;;;;12837767;19;20010;-68
2022/12/23 20:51:31;;;;;;;24.08;13.15;;;;;;;;;;12837873;19;20010;-67
2022/12/23 20:55:48;;;;;;;20.88;11.05;;;;;;;;;;12839412;19;20437;-67
2022/12/23 21:00:06;;;;;;;21.33;11.07;;;;;;;;;;12837357;19;20456;-67
2022/12/23 21:04:23;;;;;;;;;;;;;;;;;;12839034;19;20318;-67
2022/12/23 21:08:41;;;;;;;15.93;9.23;;;;;;;;;;12837699;19;20351;-67
2022/12/23 21:12:59;;;;;;;15.27;10.07;;;;;;;;;;12836594;19;20476;-66
2022/12/23 21:17:15;;;;;;;19.77;9.63;;;;;;;;;;12835685;19;20295;-67
2022/12/23 21:21:33;;;;;;;19.20;10.45;;;;;;;;;;12836155;19;20021;-66
2022/12/23 21:25:50;;;;;;;18.42;9.73;;;;;;;;;;12836964;19;20303;-66
2022/12/23 21:30:09;;;;;;;20.77;10.10;;;;;;;;;;12835124;19;20042;-66
2022/12/23 21:34:26;;;;;;;19.73;10.50;;;;;;;;;;12834587;19;20441;-66
2022/12/23 21:38:44;;;;;;;21.17;10.30;;;;;;;;;;12836425;19;20010;-68
2022/12/23 21:43:01;;;;;;;17.95;10.27;;;;;;;;;;12834376;19;20374;-66
2022/12/23 21:47:24;;;;;;;23.25;11.75;;;;;;;;;;12834441;19;20352;-67
2022/12/23 21:51:41;;;;;;;18.55;9.98;;;;;;;;;;12834782;19;20347;-67
2022/12/23 21:56:08;;;;;;;23.90;10.73;;;;;;;;;;12835273;19;20355;-68
2022/12/23 22:00:25;;;;;;;26.48;10.77;;;;;;;;;;12834672;19;20430;-68
2022/12/23 22:04:42;;;;;;;38.03;15.98;;;;;;;;;;12834994;19;20006;-66
2022/12/23 22:08:59;;;;;;;35.65;17.75;;;;;;;;;;12835235;19;20576;-67
2022/12/23 22:13:16;;;;;;;39.22;16.02;;;;;;;;;;12834401;19;20425;-66
2022/12/23 22:17:33;;;;;;;40.58;15.88;;;;;;;;;;12833352;19;20351;-67
2022/12/23 22:21:50;;;;;;;28.88;13.20;;;;;;;;;;12833927;19;20430;-66
2022/12/23 22:26:11;;;;;;;35.10;15.38;;;;;;;;;;12839135;19;20434;-66
2022/12/23 22:30:28;;;;;;;28.95;12.48;;;;;;;;;;12844717;19;20371;-68
2022/12/23 22:34:45;;;;;;;24.80;11.30;;;;;;;;;;12846222;19;20433;-67
2022/12/23 22:39:03;;;;;;;27.20;11.27;;;;;;;;;;12845227;19;20442;-67
2022/12/23 22:43:20;;;;;;;23.45;10.68;;;;;;;;;;12845410;19;20437;-67
2022/12/23 22:47:37;;;;;;;20.90;9.55;;;;;;;;;;12845027;19;20448;-67
2022/12/23 22:51:54;;;;;;;19.83;9.73;;;;;;;;;;12847622;19;20346;-68
2022/12/23 22:56:14;;;;;;;24.20;10.80;;;;;;;;;;12843148;19;20310;-68
2022/12/23 23:00:31;;;;;;;25.67;10.43;;;;;;;;;;12842019;19;20007;-67
2022/12/23 23:04:48;;;;;;;25.02;11.00;;;;;;;;;;12845298;19;20010;-66
2022/12/23 23:09:09;;;;;;;18.80;9.70;;;;;;;;;;12841983;19;20010;-66
2022/12/23 23:13:30;;;;;;;25.52;9.95;;;;;;;;;;12843747;19;20327;-68
2022/12/23 23:17:47;;;;;;;24.60;9.90;;;;;;;;;;12843265;19;20445;-68
2022/12/23 23:22:04;;;;;;;20.63;9.40;;;;;;;;;;12842379;19;20433;-67
2022/12/23 23:26:25;;;;;;;19.77;9.35;;;;;;;;;;12842352;19;20426;-66
2022/12/23 23:30:42;;;;;;;19.75;9.32;;;;;;;;;;12843766;19;20465;-67
2022/12/23 23:35:01;;;;;;;16.00;9.03;;;;;;;;;;12843580;19;20010;-67
2022/12/23 23:39:26;;;;;;;15.18;8.10;;;;;;;;;;12841665;19;20462;-67
2022/12/23 23:43:43;;;;;;;17.90;8.65;;;;;;;;;;12842396;19;20341;-67
2022/12/23 23:48:00;;;;;;;16.10;8.35;;;;;;;;;;12842528;19;20438;-68
2022/12/23 23:52:17;;;;;;;18.00;9.43;;;;;;;;;;12842385;19;20010;-68
2022/12/23 23:56:34;;;;;;;17.00;9.13;;;;;;;;;;12841485;19;20322;-68
